sensor_id;sensor_type;location;lat;lon;timestamp;P1;durP1;ratioP1;P2;durP2;ratioP2
11877;SDS011;5998;42.676;23.268;2023-05-25T00:00:24;9.57;;;8.20;;
11877;SDS011;5998;42.676;23.268;2023-05-25T00:02:51;10.50;;;8.10;;
11877;SDS011;5998;42.676;23.268;2023-05-25T00:05:19;12.13;;;7.73;;
11877;SDS011;5998;42.676;23.268;2023-05-25T00:07:47;8.03;;;7.20;;
11877;SDS011;5998;42.676;23.268;2023-05-25T00:10:13;8.77;;;7.87;;
11877;SDS011;5998;42.676;23.268;2023-05-25T00:12:39;10.43;;;8.10;;
11877;SDS011;5998;42.676;23.268;2023-05-25T00:15:06;10.23;;;8.57;;
11877;SDS011;5998;42.676;23.268;2023-05-25T00:17:33;9.63;;;7.50;;
11877;SDS011;5998;42.676;23.268;2023-05-25T00:20:01;10.20;;;8.30;;
11877;SDS011;5998;42.676;23.268;2023-05-25T00:22:32;8.83;;;8.03;;
11877;SDS011;5998;42.676;23.268;2023-05-25T00:25:00;10.43;;;8.10;;
11877;SDS011;5998;42.676;23.268;2023-05-25T00:27:27;11.50;;;8.00;;
11877;SDS011;5998;42.676;23.268;2023-05-25T00:29:53;10.17;;;8.07;;
11877;SDS011;5998;42.676;23.268;2023-05-25T00:32:20;10.50;;;8.47;;
11877;SDS011;5998;42.676;23.268;2023-05-25T00:34:46;10.60;;;8.20;;
11877;SDS011;5998;42.676;23.268;2023-05-25T00:37:12;16.23;;;8.00;;
11877;SDS011;5998;42.676;23.268;2023-05-25T00:39:39;8.50;;;7.73;;
11877;SDS011;5998;42.676;23.268;2023-05-25T00:42:07;9.40;;;7.97;;
11877;SDS011;5998;42.676;23.268;2023-05-25T00:44:33;9.20;;;8.30;;
11877;SDS011;5998;42.676;23.268;2023-05-25T00:47:00;8.80;;;7.90;;
11877;SDS011;5998;42.676;23.268;2023-05-25T00:49:27;11.57;;;8.57;;
11877;SDS011;5998;42.676;23.268;2023-05-25T00:51:53;10.13;;;8.00;;
11877;SDS011;5998;42.676;23.268;2023-05-25T00:54:20;9.57;;;7.87;;
11877;SDS011;5998;42.676;23.268;2023-05-25T00:56:50;8.30;;;7.40;;
11877;SDS011;5998;42.676;23.268;2023-05-25T00:59:19;10.33;;;7.33;;
11877;SDS011;5998;42.676;23.268;2023-05-25T01:01:49;8.03;;;7.23;;
11877;SDS011;5998;42.676;23.268;2023-05-25T01:04:17;9.37;;;7.00;;
11877;SDS011;5998;42.676;23.268;2023-05-25T01:06:47;8.10;;;6.97;;
11877;SDS011;5998;42.676;23.268;2023-05-25T01:09:15;9.70;;;6.93;;
11877;SDS011;5998;42.676;23.268;2023-05-25T01:11:41;7.97;;;6.43;;
11877;SDS011;5998;42.676;23.268;2023-05-25T01:14:09;10.53;;;6.73;;
11877;SDS011;5998;42.676;23.268;2023-05-25T01:16:37;11.40;;;6.87;;
11877;SDS011;5998;42.676;23.268;2023-05-25T01:19:04;7.87;;;7.07;;
11877;SDS011;5998;42.676;23.268;2023-05-25T01:21:33;6.90;;;6.30;;
11877;SDS011;5998;42.676;23.268;2023-05-25T01:24:03;7.30;;;6.57;;
11877;SDS011;5998;42.676;23.268;2023-05-25T01:26:33;9.30;;;6.33;;
11877;SDS011;5998;42.676;23.268;2023-05-25T01:29:00;7.63;;;6.47;;
11877;SDS011;5998;42.676;23.268;2023-05-25T01:31:26;8.67;;;6.63;;
11877;SDS011;5998;42.676;23.268;2023-05-25T01:33:53;10.77;;;6.20;;
11877;SDS011;5998;42.676;23.268;2023-05-25T01:36:21;6.70;;;6.10;;
11877;SDS011;5998;42.676;23.268;2023-05-25T01:38:48;8.07;;;6.27;;
11877;SDS011;5998;42.676;23.268;2023-05-25T01:41:15;7.17;;;6.00;;
11877;SDS011;5998;42.676;23.268;2023-05-25T01:43:42;8.23;;;5.90;;
11877;SDS011;5998;42.676;23.268;2023-05-25T01:46:10;7.30;;;5.83;;
11877;SDS011;5998;42.676;23.268;2023-05-25T01:48:39;6.47;;;5.87;;
11877;SDS011;5998;42.676;23.268;2023-05-25T01:51:10;6.43;;;5.80;;
11877;SDS011;5998;42.676;23.268;2023-05-25T01:53:41;6.93;;;6.20;;
11877;SDS011;5998;42.676;23.268;2023-05-25T01:56:10;9.37;;;6.37;;
11877;SDS011;5998;42.676;23.268;2023-05-25T01:58:39;6.73;;;5.90;;
11877;SDS011;5998;42.676;23.268;2023-05-25T02:01:07;7.47;;;6.00;;
11877;SDS011;5998;42.676;23.268;2023-05-25T02:03:34;9.30;;;6.53;;
11877;SDS011;5998;42.676;23.268;2023-05-25T02:06:01;11.83;;;7.40;;
11877;SDS011;5998;42.676;23.268;2023-05-25T02:08:27;8.03;;;5.87;;
11877;SDS011;5998;42.676;23.268;2023-05-25T02:10:55;7.17;;;6.50;;
11877;SDS011;5998;42.676;23.268;2023-05-25T02:13:23;9.60;;;6.70;;
11877;SDS011;5998;42.676;23.268;2023-05-25T02:15:49;7.30;;;6.60;;
11877;SDS011;5998;42.676;23.268;2023-05-25T02:18:16;8.60;;;6.97;;
11877;SDS011;5998;42.676;23.268;2023-05-25T02:20:42;8.90;;;7.03;;
11877;SDS011;5998;42.676;23.268;2023-05-25T02:23:09;11.33;;;6.77;;
11877;SDS011;5998;42.676;23.268;2023-05-25T02:25:35;12.00;;;7.10;;
11877;SDS011;5998;42.676;23.268;2023-05-25T02:28:02;11.40;;;6.60;;
11877;SDS011;5998;42.676;23.268;2023-05-25T02:30:30;10.27;;;6.77;;
11877;SDS011;5998;42.676;23.268;2023-05-25T02:32:57;10.37;;;6.90;;
11877;SDS011;5998;42.676;23.268;2023-05-25T02:35:23;10.00;;;6.23;;
11877;SDS011;5998;42.676;23.268;2023-05-25T02:37:49;8.27;;;6.30;;
11877;SDS011;5998;42.676;23.268;2023-05-25T02:40:16;7.40;;;6.67;;
11877;SDS011;5998;42.676;23.268;2023-05-25T02:42:42;7.40;;;6.60;;
11877;SDS011;5998;42.676;23.268;2023-05-25T02:45:09;11.57;;;6.33;;
11877;SDS011;5998;42.676;23.268;2023-05-25T02:47:37;8.60;;;7.00;;
11877;SDS011;5998;42.676;23.268;2023-05-25T02:50:04;9.13;;;6.70;;
11877;SDS011;5998;42.676;23.268;2023-05-25T02:52:31;10.00;;;6.93;;
11877;SDS011;5998;42.676;23.268;2023-05-25T02:54:57;9.10;;;6.70;;
11877;SDS011;5998;42.676;23.268;2023-05-25T02:57:24;6.67;;;6.07;;
11877;SDS011;5998;42.676;23.268;2023-05-25T02:59:51;7.90;;;7.10;;
11877;SDS011;5998;42.676;23.268;2023-05-25T03:02:17;14.13;;;7.20;;
11877;SDS011;5998;42.676;23.268;2023-05-25T03:04:46;9.83;;;6.60;;
11877;SDS011;5998;42.676;23.268;2023-05-25T03:07:13;10.63;;;6.60;;
11877;SDS011;5998;42.676;23.268;2023-05-25T03:09:40;7.97;;;7.10;;
11877;SDS011;5998;42.676;23.268;2023-05-25T03:12:07;9.53;;;6.20;;
11877;SDS011;5998;42.676;23.268;2023-05-25T03:14:33;11.10;;;6.87;;
11877;SDS011;5998;42.676;23.268;2023-05-25T03:16:59;10.87;;;6.50;;
11877;SDS011;5998;42.676;23.268;2023-05-25T03:19:26;7.40;;;6.47;;
11877;SDS011;5998;42.676;23.268;2023-05-25T03:21:54;7.73;;;6.57;;
11877;SDS011;5998;42.676;23.268;2023-05-25T03:24:20;8.50;;;6.37;;
11877;SDS011;5998;42.676;23.268;2023-05-25T03:26:47;8.23;;;6.50;;
11877;SDS011;5998;42.676;23.268;2023-05-25T03:29:13;7.43;;;6.40;;
11877;SDS011;5998;42.676;23.268;2023-05-25T03:31:40;9.50;;;6.40;;
11877;SDS011;5998;42.676;23.268;2023-05-25T03:34:06;6.90;;;6.20;;
11877;SDS011;5998;42.676;23.268;2023-05-25T03:36:32;8.73;;;6.40;;
11877;SDS011;5998;42.676;23.268;2023-05-25T03:39:00;8.17;;;6.47;;
11877;SDS011;5998;42.676;23.268;2023-05-25T03:41:27;6.60;;;5.83;;
11877;SDS011;5998;42.676;23.268;2023-05-25T03:43:53;7.30;;;6.20;;
11877;SDS011;5998;42.676;23.268;2023-05-25T03:46:19;6.37;;;5.60;;
11877;SDS011;5998;42.676;23.268;2023-05-25T03:48:46;8.53;;;5.80;;
11877;SDS011;5998;42.676;23.268;2023-05-25T03:51:12;7.67;;;5.70;;
11877;SDS011;5998;42.676;23.268;2023-05-25T03:53:39;6.20;;;5.63;;
11877;SDS011;5998;42.676;23.268;2023-05-25T03:56:07;10.27;;;5.83;;
11877;SDS011;5998;42.676;23.268;2023-05-25T03:58:33;11.13;;;6.37;;
11877;SDS011;5998;42.676;23.268;2023-05-25T04:01:00;11.67;;;6.10;;
11877;SDS011;5998;42.676;23.268;2023-05-25T04:03:27;6.37;;;5.60;;
11877;SDS011;5998;42.676;23.268;2023-05-25T04:05:53;9.23;;;5.83;;
11877;SDS011;5998;42.676;23.268;2023-05-25T04:08:21;8.50;;;6.27;;
11877;SDS011;5998;42.676;23.268;2023-05-25T04:10:48;6.87;;;5.10;;
11877;SDS011;5998;42.676;23.268;2023-05-25T04:13:16;14.67;;;6.50;;
11877;SDS011;5998;42.676;23.268;2023-05-25T04:15:43;10.67;;;5.70;;
11877;SDS011;5998;42.676;23.268;2023-05-25T04:18:09;9.17;;;6.40;;
11877;SDS011;5998;42.676;23.268;2023-05-25T04:20:36;10.70;;;6.13;;
11877;SDS011;5998;42.676;23.268;2023-05-25T04:23:02;12.73;;;6.63;;
11877;SDS011;5998;42.676;23.268;2023-05-25T04:25:28;7.87;;;6.30;;
11877;SDS011;5998;42.676;23.268;2023-05-25T04:27:56;11.10;;;6.37;;
11877;SDS011;5998;42.676;23.268;2023-05-25T04:30:24;9.47;;;7.60;;
11877;SDS011;5998;42.676;23.268;2023-05-25T04:32:50;15.03;;;7.37;;
11877;SDS011;5998;42.676;23.268;2023-05-25T04:35:16;11.57;;;7.00;;
11877;SDS011;5998;42.676;23.268;2023-05-25T04:37:44;13.13;;;7.87;;
11877;SDS011;5998;42.676;23.268;2023-05-25T04:40:11;12.07;;;7.70;;
11877;SDS011;5998;42.676;23.268;2023-05-25T04:42:38;10.83;;;7.93;;
11877;SDS011;5998;42.676;23.268;2023-05-25T04:45:05;10.83;;;6.80;;
11877;SDS011;5998;42.676;23.268;2023-05-25T04:47:34;11.27;;;7.03;;
11877;SDS011;5998;42.676;23.268;2023-05-25T04:50:01;10.63;;;7.27;;
11877;SDS011;5998;42.676;23.268;2023-05-25T04:52:28;11.00;;;7.13;;
11877;SDS011;5998;42.676;23.268;2023-05-25T04:54:54;11.93;;;8.03;;
11877;SDS011;5998;42.676;23.268;2023-05-25T04:57:21;11.63;;;7.70;;
11877;SDS011;5998;42.676;23.268;2023-05-25T04:59:47;15.33;;;7.80;;
11877;SDS011;5998;42.676;23.268;2023-05-25T05:02:14;8.03;;;7.00;;
11877;SDS011;5998;42.676;23.268;2023-05-25T05:04:42;8.60;;;7.27;;
11877;SDS011;5998;42.676;23.268;2023-05-25T05:07:08;10.73;;;6.80;;
11877;SDS011;5998;42.676;23.268;2023-05-25T05:09:35;8.73;;;6.90;;
11877;SDS011;5998;42.676;23.268;2023-05-25T05:12:01;8.27;;;7.03;;
11877;SDS011;5998;42.676;23.268;2023-05-25T05:14:27;11.37;;;7.47;;
11877;SDS011;5998;42.676;23.268;2023-05-25T05:16:54;9.50;;;7.90;;
11877;SDS011;5998;42.676;23.268;2023-05-25T05:19:20;10.27;;;7.37;;
11877;SDS011;5998;42.676;23.268;2023-05-25T05:21:48;10.77;;;6.60;;
11877;SDS011;5998;42.676;23.268;2023-05-25T05:24:15;10.00;;;7.40;;
11877;SDS011;5998;42.676;23.268;2023-05-25T05:26:41;16.73;;;7.80;;
11877;SDS011;5998;42.676;23.268;2023-05-25T05:29:08;10.43;;;7.10;;
11877;SDS011;5998;42.676;23.268;2023-05-25T05:31:34;12.87;;;7.27;;
11877;SDS011;5998;42.676;23.268;2023-05-25T05:34:01;17.57;;;7.40;;
11877;SDS011;5998;42.676;23.268;2023-05-25T05:36:28;7.90;;;6.80;;
11877;SDS011;5998;42.676;23.268;2023-05-25T05:38:56;11.70;;;8.10;;
11877;SDS011;5998;42.676;23.268;2023-05-25T05:41:22;10.80;;;7.83;;
11877;SDS011;5998;42.676;23.268;2023-05-25T05:43:48;11.33;;;8.17;;
11877;SDS011;5998;42.676;23.268;2023-05-25T05:46:15;16.57;;;9.63;;
11877;SDS011;5998;42.676;23.268;2023-05-25T05:48:41;15.80;;;10.03;;
11877;SDS011;5998;42.676;23.268;2023-05-25T05:51:08;11.33;;;9.37;;
11877;SDS011;5998;42.676;23.268;2023-05-25T05:53:34;12.20;;;11.00;;
11877;SDS011;5998;42.676;23.268;2023-05-25T05:56:02;17.33;;;13.60;;
11877;SDS011;5998;42.676;23.268;2023-05-25T05:58:29;13.73;;;12.47;;
11877;SDS011;5998;42.676;23.268;2023-05-25T06:00:56;14.17;;;9.47;;
11877;SDS011;5998;42.676;23.268;2023-05-25T06:03:24;14.57;;;8.27;;
11877;SDS011;5998;42.676;23.268;2023-05-25T06:05:51;10.73;;;9.27;;
11877;SDS011;5998;42.676;23.268;2023-05-25T06:08:18;15.73;;;9.23;;
11877;SDS011;5998;42.676;23.268;2023-05-25T06:10:44;9.60;;;8.67;;
11877;SDS011;5998;42.676;23.268;2023-05-25T06:13:12;10.73;;;8.43;;
11877;SDS011;5998;42.676;23.268;2023-05-25T06:15:39;12.60;;;8.83;;
11877;SDS011;5998;42.676;23.268;2023-05-25T06:18:05;15.37;;;8.73;;
11877;SDS011;5998;42.676;23.268;2023-05-25T06:20:32;14.73;;;9.27;;
11877;SDS011;5998;42.676;23.268;2023-05-25T06:22:59;12.97;;;9.23;;
11877;SDS011;5998;42.676;23.268;2023-05-25T06:25:25;13.40;;;9.30;;
11877;SDS011;5998;42.676;23.268;2023-05-25T06:27:52;13.43;;;8.33;;
11877;SDS011;5998;42.676;23.268;2023-05-25T06:30:20;8.47;;;7.13;;
11877;SDS011;5998;42.676;23.268;2023-05-25T06:32:46;10.07;;;7.83;;
11877;SDS011;5998;42.676;23.268;2023-05-25T06:35:12;14.20;;;7.93;;
11877;SDS011;5998;42.676;23.268;2023-05-25T06:37:43;14.17;;;7.70;;
11877;SDS011;5998;42.676;23.268;2023-05-25T06:40:10;12.63;;;7.87;;
11877;SDS011;5998;42.676;23.268;2023-05-25T06:42:37;8.60;;;7.20;;
11877;SDS011;5998;42.676;23.268;2023-05-25T06:45:03;10.73;;;7.20;;
11877;SDS011;5998;42.676;23.268;2023-05-25T06:47:31;9.00;;;7.30;;
11877;SDS011;5998;42.676;23.268;2023-05-25T06:49:58;9.03;;;6.73;;
11877;SDS011;5998;42.676;23.268;2023-05-25T06:52:24;8.70;;;7.03;;
11877;SDS011;5998;42.676;23.268;2023-05-25T06:54:52;8.47;;;6.20;;
11877;SDS011;5998;42.676;23.268;2023-05-25T06:57:18;8.57;;;5.93;;
11877;SDS011;5998;42.676;23.268;2023-05-25T06:59:45;7.83;;;6.30;;
11877;SDS011;5998;42.676;23.268;2023-05-25T07:02:11;9.83;;;6.73;;
11877;SDS011;5998;42.676;23.268;2023-05-25T07:04:39;6.77;;;6.00;;
11877;SDS011;5998;42.676;23.268;2023-05-25T07:07:05;9.63;;;6.50;;
11877;SDS011;5998;42.676;23.268;2023-05-25T07:09:33;7.03;;;5.93;;
11877;SDS011;5998;42.676;23.268;2023-05-25T07:11:59;6.90;;;6.10;;
11877;SDS011;5998;42.676;23.268;2023-05-25T07:14:26;8.17;;;6.10;;
11877;SDS011;5998;42.676;23.268;2023-05-25T07:16:52;7.43;;;5.30;;
11877;SDS011;5998;42.676;23.268;2023-05-25T07:19:19;8.07;;;5.30;;
11877;SDS011;5998;42.676;23.268;2023-05-25T07:21:47;9.27;;;5.40;;
11877;SDS011;5998;42.676;23.268;2023-05-25T07:24:13;5.90;;;5.30;;
11877;SDS011;5998;42.676;23.268;2023-05-25T07:26:40;8.77;;;5.27;;
11877;SDS011;5998;42.676;23.268;2023-05-25T07:29:08;5.37;;;4.87;;
11877;SDS011;5998;42.676;23.268;2023-05-25T07:31:36;6.73;;;5.03;;
11877;SDS011;5998;42.676;23.268;2023-05-25T07:34:02;5.30;;;4.80;;
11877;SDS011;5998;42.676;23.268;2023-05-25T07:36:29;6.63;;;4.97;;
11877;SDS011;5998;42.676;23.268;2023-05-25T07:38:57;13.40;;;5.20;;
11877;SDS011;5998;42.676;23.268;2023-05-25T07:41:24;4.70;;;4.40;;
11877;SDS011;5998;42.676;23.268;2023-05-25T07:43:50;5.83;;;4.70;;
11877;SDS011;5998;42.676;23.268;2023-05-25T07:46:17;9.07;;;4.63;;
11877;SDS011;5998;42.676;23.268;2023-05-25T07:48:46;9.90;;;5.57;;
11877;SDS011;5998;42.676;23.268;2023-05-25T07:51:12;8.23;;;4.37;;
11877;SDS011;5998;42.676;23.268;2023-05-25T07:53:39;10.10;;;4.50;;
11877;SDS011;5998;42.676;23.268;2023-05-25T07:56:08;3.97;;;3.67;;
11877;SDS011;5998;42.676;23.268;2023-05-25T07:58:34;4.27;;;3.57;;
11877;SDS011;5998;42.676;23.268;2023-05-25T08:01:01;5.47;;;4.07;;
11877;SDS011;5998;42.676;23.268;2023-05-25T08:03:30;6.53;;;4.40;;
11877;SDS011;5998;42.676;23.268;2023-05-25T08:05:57;6.90;;;4.33;;
11877;SDS011;5998;42.676;23.268;2023-05-25T08:08:23;7.87;;;4.43;;
11877;SDS011;5998;42.676;23.268;2023-05-25T08:10:49;9.30;;;4.63;;
11877;SDS011;5998;42.676;23.268;2023-05-25T08:13:17;9.73;;;4.30;;
11877;SDS011;5998;42.676;23.268;2023-05-25T08:15:44;9.87;;;4.40;;
11877;SDS011;5998;42.676;23.268;2023-05-25T08:18:10;6.60;;;4.13;;
11877;SDS011;5998;42.676;23.268;2023-05-25T08:20:37;7.03;;;4.40;;
11877;SDS011;5998;42.676;23.268;2023-05-25T08:23:03;6.33;;;3.80;;
11877;SDS011;5998;42.676;23.268;2023-05-25T08:25:30;7.33;;;3.43;;
11877;SDS011;5998;42.676;23.268;2023-05-25T08:27:56;9.70;;;3.80;;
11877;SDS011;5998;42.676;23.268;2023-05-25T08:30:24;5.73;;;2.90;;
11877;SDS011;5998;42.676;23.268;2023-05-25T08:32:50;7.73;;;2.93;;
11877;SDS011;5998;42.676;23.268;2023-05-25T08:35:17;6.47;;;2.73;;
11877;SDS011;5998;42.676;23.268;2023-05-25T08:37:43;7.00;;;3.30;;
11877;SDS011;5998;42.676;23.268;2023-05-25T08:40:13;5.43;;;3.20;;
11877;SDS011;5998;42.676;23.268;2023-05-25T08:42:40;6.90;;;4.60;;
11877;SDS011;5998;42.676;23.268;2023-05-25T08:45:07;5.00;;;4.07;;
11877;SDS011;5998;42.676;23.268;2023-05-25T08:47:35;11.53;;;5.30;;
11877;SDS011;5998;42.676;23.268;2023-05-25T08:50:05;5.30;;;4.80;;
11877;SDS011;5998;42.676;23.268;2023-05-25T08:52:33;9.63;;;4.90;;
11877;SDS011;5998;42.676;23.268;2023-05-25T08:55:02;13.07;;;5.97;;
11877;SDS011;5998;42.676;23.268;2023-05-25T08:57:30;19.90;;;5.73;;
11877;SDS011;5998;42.676;23.268;2023-05-25T08:59:59;20.53;;;4.80;;
11877;SDS011;5998;42.676;23.268;2023-05-25T09:02:29;4.00;;;3.60;;
11877;SDS011;5998;42.676;23.268;2023-05-25T09:04:59;5.93;;;4.03;;
11877;SDS011;5998;42.676;23.268;2023-05-25T09:07:26;5.17;;;3.97;;
11877;SDS011;5998;42.676;23.268;2023-05-25T09:09:54;5.27;;;4.20;;
11877;SDS011;5998;42.676;23.268;2023-05-25T09:12:21;6.27;;;4.03;;
11877;SDS011;5998;42.676;23.268;2023-05-25T09:14:47;14.90;;;5.43;;
11877;SDS011;5998;42.676;23.268;2023-05-25T09:17:14;7.20;;;3.67;;
11877;SDS011;5998;42.676;23.268;2023-05-25T09:19:40;6.57;;;4.13;;
11877;SDS011;5998;42.676;23.268;2023-05-25T09:22:08;8.77;;;4.83;;
11877;SDS011;5998;42.676;23.268;2023-05-25T09:24:35;6.43;;;4.87;;
11877;SDS011;5998;42.676;23.268;2023-05-25T09:27:05;6.50;;;4.27;;
11877;SDS011;5998;42.676;23.268;2023-05-25T09:29:31;5.73;;;4.70;;
11877;SDS011;5998;42.676;23.268;2023-05-25T09:31:59;7.90;;;4.50;;
11877;SDS011;5998;42.676;23.268;2023-05-25T09:34:29;12.23;;;4.70;;
11877;SDS011;5998;42.676;23.268;2023-05-25T09:36:57;9.23;;;5.37;;
11877;SDS011;5998;42.676;23.268;2023-05-25T09:39:25;8.23;;;4.33;;
11877;SDS011;5998;42.676;23.268;2023-05-25T09:41:52;6.40;;;4.20;;
11877;SDS011;5998;42.676;23.268;2023-05-25T09:44:18;6.83;;;3.97;;
11877;SDS011;5998;42.676;23.268;2023-05-25T09:46:45;5.73;;;3.43;;
11877;SDS011;5998;42.676;23.268;2023-05-25T09:49:11;6.70;;;4.03;;
11877;SDS011;5998;42.676;23.268;2023-05-25T09:51:38;5.97;;;3.90;;
11877;SDS011;5998;42.676;23.268;2023-05-25T09:54:08;5.10;;;3.93;;
11877;SDS011;5998;42.676;23.268;2023-05-25T09:56:36;7.17;;;4.97;;
11877;SDS011;5998;42.676;23.268;2023-05-25T09:59:02;4.60;;;4.17;;
11877;SDS011;5998;42.676;23.268;2023-05-25T10:01:29;8.00;;;4.60;;
11877;SDS011;5998;42.676;23.268;2023-05-25T10:03:56;6.90;;;4.63;;
11877;SDS011;5998;42.676;23.268;2023-05-25T10:06:23;5.67;;;4.53;;
11877;SDS011;5998;42.676;23.268;2023-05-25T10:08:50;5.40;;;4.53;;
11877;SDS011;5998;42.676;23.268;2023-05-25T10:11:17;6.03;;;4.00;;
11877;SDS011;5998;42.676;23.268;2023-05-25T10:13:46;5.60;;;4.40;;
11877;SDS011;5998;42.676;23.268;2023-05-25T10:16:13;5.00;;;4.60;;
11877;SDS011;5998;42.676;23.268;2023-05-25T10:18:43;6.63;;;4.30;;
11877;SDS011;5998;42.676;23.268;2023-05-25T10:21:12;4.90;;;4.43;;
11877;SDS011;5998;42.676;23.268;2023-05-25T10:23:42;6.73;;;4.87;;
11877;SDS011;5998;42.676;23.268;2023-05-25T10:26:10;5.23;;;4.03;;
11877;SDS011;5998;42.676;23.268;2023-05-25T10:28:38;5.83;;;4.93;;
11877;SDS011;5998;42.676;23.268;2023-05-25T10:31:07;14.03;;;5.10;;
11877;SDS011;5998;42.676;23.268;2023-05-25T10:33:34;4.70;;;3.83;;
11877;SDS011;5998;42.676;23.268;2023-05-25T10:36:01;4.80;;;3.83;;
11877;SDS011;5998;42.676;23.268;2023-05-25T10:38:29;5.10;;;4.60;;
11877;SDS011;5998;42.676;23.268;2023-05-25T10:40:55;6.23;;;4.87;;
11877;SDS011;5998;42.676;23.268;2023-05-25T10:43:23;5.27;;;4.20;;
11877;SDS011;5998;42.676;23.268;2023-05-25T10:45:50;4.60;;;4.20;;
11877;SDS011;5998;42.676;23.268;2023-05-25T10:48:17;5.10;;;4.60;;
11877;SDS011;5998;42.676;23.268;2023-05-25T10:50:48;7.63;;;4.93;;
11877;SDS011;5998;42.676;23.268;2023-05-25T10:53:14;5.47;;;4.23;;
11877;SDS011;5998;42.676;23.268;2023-05-25T10:55:41;5.93;;;4.60;;
11877;SDS011;5998;42.676;23.268;2023-05-25T10:58:09;4.13;;;3.73;;
11877;SDS011;5998;42.676;23.268;2023-05-25T11:00:36;4.17;;;3.50;;
11877;SDS011;5998;42.676;23.268;2023-05-25T11:03:02;4.97;;;3.23;;
11877;SDS011;5998;42.676;23.268;2023-05-25T11:05:34;7.33;;;3.93;;
11877;SDS011;5998;42.676;23.268;2023-05-25T11:08:02;5.53;;;3.70;;
11877;SDS011;5998;42.676;23.268;2023-05-25T11:10:41;7.53;;;4.07;;
11877;SDS011;5998;42.676;23.268;2023-05-25T11:16:12;4.93;;;3.87;;
11877;SDS011;5998;42.676;23.268;2023-05-25T11:18:39;4.27;;;3.90;;
11877;SDS011;5998;42.676;23.268;2023-05-25T11:21:14;6.57;;;4.00;;
11877;SDS011;5998;42.676;23.268;2023-05-25T11:23:52;38.13;;;8.70;;
11877;SDS011;5998;42.676;23.268;2023-05-25T11:26:19;4.90;;;3.50;;
11877;SDS011;5998;42.676;23.268;2023-05-25T11:28:46;9.77;;;4.23;;
11877;SDS011;5998;42.676;23.268;2023-05-25T11:31:13;4.50;;;3.73;;
11877;SDS011;5998;42.676;23.268;2023-05-25T11:33:40;4.30;;;4.00;;
11877;SDS011;5998;42.676;23.268;2023-05-25T11:36:08;6.63;;;4.00;;
11877;SDS011;5998;42.676;23.268;2023-05-25T11:38:40;6.73;;;4.30;;
11877;SDS011;5998;42.676;23.268;2023-05-25T11:41:14;5.10;;;3.80;;
11877;SDS011;5998;42.676;23.268;2023-05-25T11:43:46;6.10;;;3.87;;
11877;SDS011;5998;42.676;23.268;2023-05-25T11:46:13;5.87;;;4.33;;
11877;SDS011;5998;42.676;23.268;2023-05-25T11:48:43;7.03;;;4.37;;
11877;SDS011;5998;42.676;23.268;2023-05-25T11:51:10;3.67;;;3.30;;
11877;SDS011;5998;42.676;23.268;2023-05-25T11:53:41;4.03;;;3.13;;
11877;SDS011;5998;42.676;23.268;2023-05-25T11:56:08;8.33;;;2.90;;
11877;SDS011;5998;42.676;23.268;2023-05-25T11:58:35;5.10;;;3.40;;
11877;SDS011;5998;42.676;23.268;2023-05-25T12:01:11;6.40;;;3.63;;
11877;SDS011;5998;42.676;23.268;2023-05-25T12:03:38;6.53;;;3.90;;
11877;SDS011;5998;42.676;23.268;2023-05-25T12:06:05;5.23;;;3.40;;
11877;SDS011;5998;42.676;23.268;2023-05-25T12:08:31;3.50;;;3.20;;
11877;SDS011;5998;42.676;23.268;2023-05-25T12:10:59;5.13;;;3.00;;
11877;SDS011;5998;42.676;23.268;2023-05-25T12:13:26;3.97;;;2.80;;
11877;SDS011;5998;42.676;23.268;2023-05-25T12:15:53;3.83;;;3.10;;
11877;SDS011;5998;42.676;23.268;2023-05-25T12:18:21;3.17;;;2.70;;
11877;SDS011;5998;42.676;23.268;2023-05-25T12:20:48;6.50;;;2.93;;
11877;SDS011;5998;42.676;23.268;2023-05-25T12:23:14;4.60;;;3.20;;
11877;SDS011;5998;42.676;23.268;2023-05-25T12:25:41;4.07;;;3.20;;
11877;SDS011;5998;42.676;23.268;2023-05-25T12:28:09;4.03;;;3.10;;
11877;SDS011;5998;42.676;23.268;2023-05-25T12:30:36;4.43;;;3.63;;
11877;SDS011;5998;42.676;23.268;2023-05-25T12:33:02;10.43;;;3.03;;
11877;SDS011;5998;42.676;23.268;2023-05-25T12:35:30;3.80;;;2.90;;
11877;SDS011;5998;42.676;23.268;2023-05-25T12:38:09;4.83;;;2.70;;
11877;SDS011;5998;42.676;23.268;2023-05-25T12:40:36;4.17;;;2.93;;
11877;SDS011;5998;42.676;23.268;2023-05-25T12:43:02;7.83;;;2.90;;
11877;SDS011;5998;42.676;23.268;2023-05-25T12:45:30;8.80;;;3.03;;
11877;SDS011;5998;42.676;23.268;2023-05-25T12:47:57;5.63;;;2.60;;
11877;SDS011;5998;42.676;23.268;2023-05-25T12:50:23;3.47;;;2.50;;
11877;SDS011;5998;42.676;23.268;2023-05-25T12:52:50;5.03;;;2.53;;
11877;SDS011;5998;42.676;23.268;2023-05-25T12:55:20;2.73;;;2.53;;
11877;SDS011;5998;42.676;23.268;2023-05-25T12:57:46;3.00;;;2.37;;
11877;SDS011;5998;42.676;23.268;2023-05-25T13:00:16;3.50;;;2.37;;
11877;SDS011;5998;42.676;23.268;2023-05-25T13:02:44;4.40;;;2.37;;
11877;SDS011;5998;42.676;23.268;2023-05-25T13:05:18;4.17;;;2.70;;
11877;SDS011;5998;42.676;23.268;2023-05-25T13:07:45;3.37;;;2.03;;
11877;SDS011;5998;42.676;23.268;2023-05-25T13:10:11;1.90;;;1.70;;
11877;SDS011;5998;42.676;23.268;2023-05-25T13:12:38;3.27;;;2.00;;
11877;SDS011;5998;42.676;23.268;2023-05-25T13:15:06;3.77;;;2.30;;
11877;SDS011;5998;42.676;23.268;2023-05-25T13:17:32;2.90;;;2.10;;
11877;SDS011;5998;42.676;23.268;2023-05-25T13:20:01;4.53;;;2.40;;
11877;SDS011;5998;42.676;23.268;2023-05-25T13:22:28;3.53;;;2.20;;
11877;SDS011;5998;42.676;23.268;2023-05-25T13:24:55;3.77;;;1.97;;
11877;SDS011;5998;42.676;23.268;2023-05-25T13:27:21;2.30;;;2.10;;
11877;SDS011;5998;42.676;23.268;2023-05-25T13:29:47;2.40;;;1.90;;
11877;SDS011;5998;42.676;23.268;2023-05-25T13:32:14;2.27;;;2.07;;
11877;SDS011;5998;42.676;23.268;2023-05-25T13:34:40;2.37;;;2.10;;
11877;SDS011;5998;42.676;23.268;2023-05-25T13:37:08;2.47;;;2.27;;
11877;SDS011;5998;42.676;23.268;2023-05-25T13:39:34;3.87;;;2.27;;
11877;SDS011;5998;42.676;23.268;2023-05-25T13:42:01;2.20;;;2.00;;
11877;SDS011;5998;42.676;23.268;2023-05-25T13:44:27;4.13;;;2.50;;
11877;SDS011;5998;42.676;23.268;2023-05-25T13:46:54;4.20;;;2.50;;
11877;SDS011;5998;42.676;23.268;2023-05-25T13:49:20;4.23;;;2.10;;
11877;SDS011;5998;42.676;23.268;2023-05-25T13:51:47;3.07;;;2.20;;
11877;SDS011;5998;42.676;23.268;2023-05-25T13:54:15;5.40;;;2.17;;
11877;SDS011;5998;42.676;23.268;2023-05-25T13:56:42;2.50;;;2.30;;
11877;SDS011;5998;42.676;23.268;2023-05-25T13:59:09;5.70;;;2.33;;
11877;SDS011;5998;42.676;23.268;2023-05-25T14:01:35;3.13;;;2.10;;
11877;SDS011;5998;42.676;23.268;2023-05-25T14:06:47;4.67;;;2.37;;
11877;SDS011;5998;42.676;23.268;2023-05-25T14:09:21;2.30;;;2.10;;
11877;SDS011;5998;42.676;23.268;2023-05-25T14:11:47;2.30;;;2.10;;
11877;SDS011;5998;42.676;23.268;2023-05-25T14:14:14;4.37;;;2.30;;
11877;SDS011;5998;42.676;23.268;2023-05-25T14:16:40;2.23;;;2.03;;
11877;SDS011;5998;42.676;23.268;2023-05-25T14:19:06;2.27;;;2.07;;
11877;SDS011;5998;42.676;23.268;2023-05-25T14:21:33;4.87;;;2.20;;
11877;SDS011;5998;42.676;23.268;2023-05-25T14:23:59;2.63;;;2.27;;
11877;SDS011;5998;42.676;23.268;2023-05-25T14:26:27;2.27;;;2.10;;
11877;SDS011;5998;42.676;23.268;2023-05-25T14:28:54;2.30;;;2.20;;
11877;SDS011;5998;42.676;23.268;2023-05-25T14:31:20;3.97;;;2.30;;
11877;SDS011;5998;42.676;23.268;2023-05-25T14:33:47;2.23;;;2.07;;
11877;SDS011;5998;42.676;23.268;2023-05-25T14:36:15;3.63;;;2.30;;
11877;SDS011;5998;42.676;23.268;2023-05-25T14:38:42;3.93;;;1.90;;
11877;SDS011;5998;42.676;23.268;2023-05-25T14:41:08;2.17;;;2.07;;
11877;SDS011;5998;42.676;23.268;2023-05-25T14:43:36;2.50;;;2.30;;
11877;SDS011;5998;42.676;23.268;2023-05-25T14:46:04;3.07;;;2.73;;
11877;SDS011;5998;42.676;23.268;2023-05-25T14:48:30;2.57;;;2.07;;